Time;durP1;ratioP1;P1;durP2;ratioP2;P2;SDS_P1;SDS_P2;PMS_P1;PMS_P2;Temp;Humidity;BMP_temperature;BMP_pressure;BME280_temperature;BME280_humidity;BME280_pressure;Samples;Min_cycle;Max_cycle;Signal;HPM_P1;HPM_P2
2023/07/29 00:00:34;;;;;;;11.18;5.60;;;18.90;99.90;;;;;;5051805;28;20049;-78
2023/07/29 00:03:21;;;;;;;11.25;5.57;;;18.90;99.90;;;;;;5034254;28;20488;-78
2023/07/29 00:06:07;;;;;;;8.45;5.03;;;18.90;99.90;;;;;;5051973;28;20049;-76
2023/07/29 00:08:53;;;;;;;8.77;4.47;;;18.90;99.90;;;;;;5052144;28;20044;-76
2023/07/29 00:11:39;;;;;;;7.97;4.25;;;18.90;99.90;;;;;;5051442;28;20055;-76
2023/07/29 00:14:25;;;;;;;7.03;3.50;;;18.90;99.90;;;;;;5052016;28;20045;-76
2023/07/29 00:17:11;;;;;;;6.07;3.10;;;18.90;99.90;;;;;;5050746;28;20523;-77
2023/07/29 00:19:57;;;;;;;7.65;3.35;;;18.80;99.90;;;;;;5033506;28;20055;-77
2023/07/29 00:22:43;;;;;;;8.00;3.72;;;18.80;99.90;;;;;;5051488;28;20056;-76
2023/07/29 00:25:29;;;;;;;8.38;3.55;;;18.80;99.90;;;;;;5052426;28;20056;-76
2023/07/29 00:28:15;;;;;;;9.48;5.50;;;18.80;99.90;;;;;;5051605;28;20084;-77
2023/07/29 00:31:02;;;;;;;13.13;4.68;;;18.80;99.90;;;;;;5051538;28;20052;-77
2023/07/29 00:33:48;;;;;;;11.43;4.90;;;18.80;99.90;;;;;;5051111;28;20045;-77
2023/07/29 00:36:34;;;;;;;8.88;3.83;;;18.80;99.90;;;;;;5034721;28;20060;-77
2023/07/29 00:39:20;;;;;;;9.85;4.63;;;18.80;99.90;;;;;;5019700;28;20052;-77
2023/07/29 00:42:06;;;;;;;10.60;4.93;;;18.80;99.90;;;;;;5019921;28;20091;-77
2023/07/29 00:44:52;;;;;;;10.30;5.25;;;18.80;99.90;;;;;;5034002;28;20141;-77
2023/07/29 00:47:39;;;;;;;11.73;5.20;;;18.80;99.90;;;;;;5051175;28;20053;-77
2023/07/29 00:50:27;;;;;;;10.45;5.35;;;18.80;99.90;;;;;;5051660;28;20056;-77
2023/07/29 00:53:14;;;;;;;14.45;6.65;;;18.80;99.90;;;;;;5051120;28;20057;-78
2023/07/29 00:56:00;;;;;;;13.32;5.80;;;18.80;99.90;;;;;;5051100;28;20413;-77
2023/07/29 00:58:46;;;;;;;11.60;6.22;;;18.70;99.90;;;;;;5051752;28;20057;-77
2023/07/29 01:01:32;;;;;;;12.85;6.68;;;18.70;99.90;;;;;;5051582;28;20132;-77
2023/07/29 01:04:18;;;;;;;15.50;7.10;;;18.70;99.90;;;;;;5050942;28;20055;-76
2023/07/29 01:07:32;;;;;;;11.65;6.50;;;18.60;99.90;;;;;;5033187;28;20115;-77
2023/07/29 01:10:27;;;;;;;9.55;5.72;;;18.60;99.90;;;;;;5050180;28;20049;-77
2023/07/29 01:13:20;;;;;;;11.77;7.07;;;18.60;99.90;;;;;;5037373;28;20400;-78
2023/07/29 01:16:16;;;;;;;11.52;6.40;;;18.60;99.90;;;;;;5050373;28;20461;-77
2023/07/29 01:19:07;;;;;;;8.10;4.85;;;18.50;99.90;;;;;;5049845;28;20067;-77
2023/07/29 01:21:54;;;;;;;12.98;6.22;;;18.50;99.90;;;;;;5019367;28;20485;-77
2023/07/29 01:24:40;;;;;;;11.35;6.68;;;18.50;99.90;;;;;;5051116;28;20106;-77
2023/07/29 01:27:26;;;;;;;14.18;6.35;;;18.40;99.90;;;;;;5051960;28;20107;-77
2023/07/29 01:30:13;;;;;;;11.38;5.93;;;18.40;99.90;;;;;;5054808;28;20471;-77
2023/07/29 01:33:17;;;;;;;13.73;7.00;;;18.40;99.90;;;;;;5036796;28;20057;-77
2023/07/29 01:36:12;;;;;;;18.45;7.25;;;18.30;99.90;;;;;;5036905;28;20061;-77
2023/07/29 01:38:59;;;;;;;16.45;7.38;;;18.30;99.90;;;;;;5054767;28;20151;-77
2023/07/29 01:41:46;;;;;;;11.60;5.72;;;18.30;99.90;;;;;;5054427;28;20049;-77
2023/07/29 01:44:32;;;;;;;10.95;6.60;;;18.30;99.90;;;;;;5055403;28;20182;-77
2023/07/29 01:47:20;;;;;;;11.35;6.40;;;18.30;99.90;;;;;;5054909;28;20060;-76
2023/07/29 01:50:07;;;;;;;12.07;6.75;;;18.30;99.90;;;;;;5037171;28;20052;-77
2023/07/29 01:52:53;;;;;;;9.80;5.70;;;18.30;99.90;;;;;;5054390;28;20160;-76
2023/07/29 01:55:40;;;;;;;16.27;6.85;;;18.30;99.90;;;;;;5036362;28;20056;-76
2023/07/29 01:58:26;;;;;;;11.52;6.32;;;18.30;99.90;;;;;;5036746;28;20051;-76
2023/07/29 02:01:12;;;;;;;11.90;6.75;;;18.30;99.90;;;;;;5053985;28;20037;-79
2023/07/29 02:03:58;;;;;;;12.48;6.20;;;18.30;99.90;;;;;;5037202;28;20088;-76
2023/07/29 02:06:45;;;;;;;16.40;7.60;;;18.30;99.90;;;;;;5054547;28;20045;-76
2023/07/29 02:09:31;;;;;;;14.32;7.93;;;18.20;99.90;;;;;;5036156;28;20056;-76
2023/07/29 02:12:17;;;;;;;15.35;7.13;;;18.20;99.90;;;;;;5036984;28;20420;-77
2023/07/29 02:15:04;;;;;;;13.43;7.32;;;18.10;99.90;;;;;;5035673;28;20791;-76
2023/07/29 02:17:51;;;;;;;14.38;7.22;;;18.10;99.90;;;;;;5053179;28;20048;-76
2023/07/29 02:20:37;;;;;;;18.10;7.25;;;18.10;99.90;;;;;;5054028;28;20072;-76
2023/07/29 02:23:24;;;;;;;16.38;7.30;;;18.00;99.90;;;;;;5035583;28;20085;-76
2023/07/29 02:26:10;;;;;;;15.80;8.88;;;18.00;99.90;;;;;;5036076;28;20136;-76
2023/07/29 02:28:56;;;;;;;14.23;7.70;;;17.90;99.90;;;;;;5053700;28;20056;-76
2023/07/29 02:31:44;;;;;;;14.57;8.18;;;17.90;99.90;;;;;;5053375;28;20154;-77
2023/07/29 02:34:30;;;;;;;15.15;8.38;;;17.90;99.90;;;;;;5053620;28;20049;-77
2023/07/29 02:37:16;;;;;;;14.52;9.05;;;17.90;99.90;;;;;;5053780;28;20106;-76
2023/07/29 02:40:03;;;;;;;16.45;9.07;;;17.90;99.90;;;;;;5053048;28;20128;-76
2023/07/29 02:42:49;;;;;;;14.30;8.73;;;17.90;99.90;;;;;;5036007;28;20155;-76
2023/07/29 02:45:35;;;;;;;21.48;9.30;;;17.90;99.90;;;;;;5053618;28;20186;-76
2023/07/29 02:48:21;;;;;;;13.60;7.55;;;17.90;99.90;;;;;;5053608;28;20052;-76
2023/07/29 02:51:07;;;;;;;15.07;7.57;;;17.90;99.90;;;;;;5053575;28;20045;-77
2023/07/29 02:53:53;;;;;;;20.77;8.95;;;17.90;99.90;;;;;;5053435;28;20059;-77
2023/07/29 02:56:39;;;;;;;15.07;7.32;;;17.90;99.90;;;;;;5053078;28;20439;-77
2023/07/29 02:59:25;;;;;;;16.75;7.93;;;17.90;99.90;;;;;;5035665;28;20472;-76
2023/07/29 03:02:12;;;;;;;11.65;6.53;;;17.90;99.90;;;;;;5053297;28;20052;-76
2023/07/29 03:04:58;;;;;;;16.70;7.53;;;17.90;99.90;;;;;;5053213;28;20052;-75
2023/07/29 03:07:45;;;;;;;15.68;7.00;;;17.90;99.90;;;;;;5052559;28;20063;-77
2023/07/29 03:10:31;;;;;;;14.90;6.97;;;17.90;99.90;;;;;;5052644;28;20057;-76
2023/07/29 03:13:17;;;;;;;11.75;6.70;;;17.90;99.90;;;;;;5053060;28;20057;-77
2023/07/29 03:16:11;;;;;;;12.48;7.22;;;17.90;99.90;;;;;;5053019;28;20377;-77
2023/07/29 03:18:59;;;;;;;17.10;8.20;;;17.90;99.90;;;;;;5051784;28;20045;-77
2023/07/29 03:21:45;;;;;;;14.02;7.80;;;17.80;99.90;;;;;;5052743;28;20055;-77
2023/07/29 03:24:32;;;;;;;14.93;9.25;;;17.80;99.90;;;;;;5052666;28;20057;-76
2023/07/29 03:27:18;;;;;;;15.80;8.90;;;17.80;99.90;;;;;;5052298;28;20123;-75
2023/07/29 03:30:05;;;;;;;15.15;8.85;;;17.70;99.90;;;;;;5052612;28;20397;-76
2023/07/29 03:32:51;;;;;;;15.20;8.90;;;17.70;99.90;;;;;;5052021;28;20388;-76
2023/07/29 03:35:37;;;;;;;15.93;10.30;;;17.70;99.90;;;;;;5052428;28;20049;-76
2023/07/29 03:38:23;;;;;;;20.50;10.70;;;17.60;99.90;;;;;;5051553;28;20547;-77
2023/07/29 03:41:10;;;;;;;21.23;10.43;;;17.60;99.90;;;;;;5053260;28;20060;-77
2023/07/29 03:43:56;;;;;;;19.48;9.93;;;17.50;99.90;;;;;;5051835;28;20056;-76
2023/07/29 03:46:42;;;;;;;15.20;8.88;;;17.50;99.90;;;;;;5052210;28;20068;-77
2023/07/29 03:49:28;;;;;;;18.10;9.63;;;17.50;99.90;;;;;;5051620;28;20057;-77
2023/07/29 03:52:14;;;;;;;18.02;8.70;;;17.50;99.90;;;;;;5052697;28;20055;-76
2023/07/29 03:55:00;;;;;;;14.52;7.60;;;17.50;99.90;;;;;;5053071;28;20128;-75
2023/07/29 03:57:46;;;;;;;14.88;7.40;;;17.40;99.90;;;;;;5052439;28;20041;-76
2023/07/29 04:00:32;;;;;;;13.45;6.78;;;17.40;99.90;;;;;;5036852;28;20237;-76
2023/07/29 04:03:18;;;;;;;12.50;6.05;;;17.40;99.90;;;;;;5051893;28;20057;-77
2023/07/29 04:06:04;;;;;;;13.07;6.13;;;17.40;99.90;;;;;;5038209;28;20075;-76
2023/07/29 04:08:51;;;;;;;14.35;5.57;;;17.40;99.90;;;;;;5051762;28;20190;-76
2023/07/29 04:11:37;;;;;;;11.23;5.40;;;17.40;99.90;;;;;;5051734;28;20105;-77
2023/07/29 04:14:23;;;;;;;13.02;5.50;;;17.40;99.90;;;;;;5051926;28;20160;-76
2023/07/29 04:17:09;;;;;;;14.15;4.70;;;17.40;99.90;;;;;;5051049;28;20081;-77
2023/07/29 04:19:55;;;;;;;10.27;5.25;;;17.40;99.90;;;;;;5051113;28;20053;-76
2023/07/29 04:22:41;;;;;;;9.70;4.00;;;17.40;99.90;;;;;;5036597;28;20052;-76
2023/07/29 04:25:28;;;;;;;10.07;4.20;;;17.40;99.90;;;;;;5051215;28;20051;-76
2023/07/29 04:28:14;;;;;;;12.70;5.28;;;17.40;99.90;;;;;;5051329;28;20052;-77
2023/07/29 04:31:00;;;;;;;13.75;4.65;;;17.40;99.90;;;;;;5052163;28;20409;-76
2023/07/29 04:33:46;;;;;;;16.35;4.63;;;17.40;99.90;;;;;;5020587;28;20546;-76
2023/07/29 04:36:32;;;;;;;10.13;4.25;;;17.40;99.90;;;;;;5033251;28;20053;-76
2023/07/29 04:39:18;;;;;;;9.82;4.75;;;17.40;99.90;;;;;;5032910;28;20053;-77
2023/07/29 04:42:05;;;;;;;13.88;4.70;;;17.50;99.90;;;;;;5050820;28;20056;-76
2023/07/29 04:44:51;;;;;;;13.88;4.30;;;17.50;99.90;;;;;;5034103;28;20048;-76
2023/07/29 04:47:37;;;;;;;12.38;4.15;;;17.50;99.90;;;;;;5051286;28;20051;-76
2023/07/29 04:50:23;;;;;;;10.57;4.00;;;17.60;99.90;;;;;;5051284;28;20147;-76
2023/07/29 04:53:09;;;;;;;9.60;4.20;;;17.60;99.90;;;;;;5051644;28;20192;-77
2023/07/29 04:55:55;;;;;;;8.90;4.10;;;17.60;99.90;;;;;;5051278;28;20144;-75
2023/07/29 04:58:41;;;;;;;10.40;3.67;;;17.60;99.90;;;;;;5051537;28;20092;-76
2023/07/29 05:01:27;;;;;;;10.65;3.67;;;17.60;99.90;;;;;;5050802;28;20044;-75
2023/07/29 05:04:14;;;;;;;13.02;4.00;;;17.60;99.90;;;;;;5050475;28;20052;-76
2023/07/29 05:07:00;;;;;;;11.38;4.93;;;17.60;99.90;;;;;;5034015;28;20068;-76
2023/07/29 05:09:47;;;;;;;14.10;5.03;;;17.60;99.90;;;;;;5052120;28;20057;-76
2023/07/29 05:12:33;;;;;;;10.95;4.25;;;17.60;99.90;;;;;;5033223;28;20049;-77
2023/07/29 05:15:19;;;;;;;11.18;3.67;;;17.60;99.90;;;;;;5051087;28;20078;-77
2023/07/29 05:18:06;;;;;;;12.85;4.32;;;17.60;99.90;;;;;;5033512;28;20492;-77
2023/07/29 05:20:52;;;;;;;9.00;3.97;;;17.60;99.90;;;;;;5051165;28;20053;-77
2023/07/29 05:23:38;;;;;;;11.02;3.58;;;17.60;99.90;;;;;;5035565;28;20493;-77
2023/07/29 05:26:24;;;;;;;13.07;3.40;;;17.60;99.90;;;;;;5051294;28;20051;-76
2023/07/29 05:29:10;;;;;;;9.27;3.22;;;17.60;99.90;;;;;;5050155;28;20049;-76
2023/07/29 05:31:57;;;;;;;7.10;3.20;;;17.70;99.90;;;;;;5049864;28;20049;-76
2023/07/29 05:34:43;;;;;;;7.88;3.50;;;17.70;99.90;;;;;;5019684;28;20055;-76
2023/07/29 05:37:29;;;;;;;10.45;3.58;;;17.60;99.90;;;;;;5050557;28;20049;-76
2023/07/29 05:40:15;;;;;;;9.68;3.28;;;17.70;99.90;;;;;;5050577;28;20080;-76
2023/07/29 05:43:03;;;;;;;13.13;3.33;;;17.70;99.90;;;;;;5050771;28;20060;-77
2023/07/29 05:45:49;;;;;;;11.98;3.13;;;17.70;99.90;;;;;;5036439;28;20052;-77
2023/07/29 05:48:35;;;;;;;7.07;2.95;;;17.70;99.90;;;;;;5050160;28;20053;-77
2023/07/29 05:51:21;;;;;;;10.75;2.65;;;17.70;99.90;;;;;;5032439;28;20064;-77
2023/07/29 05:54:07;;;;;;;8.95;2.92;;;17.70;99.90;;;;;;5050641;28;20393;-77
2023/07/29 05:56:54;;;;;;;10.93;3.55;;;17.70;99.90;;;;;;5050297;28;20053;-77
2023/07/29 05:59:40;;;;;;;8.95;3.67;;;17.80;99.90;;;;;;5032799;28;20440;-75
2023/07/29 06:02:26;;;;;;;9.00;3.95;;;17.80;99.90;;;;;;5050977;28;20049;-76
2023/07/29 06:05:12;;;;;;;8.18;2.38;;;17.80;99.90;;;;;;5049840;28;20452;-76
2023/07/29 06:07:58;;;;;;;9.38;2.67;;;17.80;99.90;;;;;;5050951;28;20053;-77
2023/07/29 06:10:44;;;;;;;6.85;2.60;;;17.80;99.90;;;;;;5050749;28;20052;-76
2023/07/29 06:13:31;;;;;;;7.72;2.72;;;17.80;99.90;;;;;;5051059;28;20128;-77
2023/07/29 06:16:17;;;;;;;7.90;2.97;;;17.90;99.90;;;;;;5054533;28;20057;-77
2023/07/29 06:19:03;;;;;;;13.48;3.53;;;18.00;99.90;;;;;;5052624;28;20048;-77
2023/07/29 06:21:49;;;;;;;10.38;3.63;;;17.90;99.90;;;;;;5036268;28;20063;-77
2023/07/29 06:24:36;;;;;;;7.10;3.08;;;18.00;99.90;;;;;;5039456;28;20526;-77
2023/07/29 06:27:24;;;;;;;8.48;3.13;;;18.00;99.90;;;;;;5054352;28;20595;-78
2023/07/29 06:30:10;;;;;;;9.75;3.30;;;18.20;99.90;;;;;;5040643;28;20088;-77
2023/07/29 06:32:57;;;;;;;11.93;3.33;;;18.40;99.90;;;;;;5054177;28;20045;-77
2023/07/29 06:35:43;;;;;;;8.57;3.13;;;18.60;99.90;;;;;;5054979;28;20059;-77
2023/07/29 06:38:29;;;;;;;12.00;3.67;;;18.90;99.90;;;;;;5054322;28;20055;-77
2023/07/29 06:41:16;;;;;;;11.75;3.50;;;18.90;99.90;;;;;;5054441;28;20094;-76
2023/07/29 06:44:02;;;;;;;15.02;3.55;;;19.00;99.90;;;;;;5053340;28;20063;-77
2023/07/29 06:46:48;;;;;;;13.48;4.28;;;19.00;99.90;;;;;;5054282;28;20135;-78
2023/07/29 06:49:34;;;;;;;7.13;2.72;;;19.00;99.90;;;;;;5053545;28;20140;-77
2023/07/29 06:52:20;;;;;;;14.00;3.90;;;18.90;99.90;;;;;;5052492;28;20076;-78
2023/07/29 06:55:07;;;;;;;11.60;3.75;;;19.00;99.90;;;;;;5052939;28;20053;-78
2023/07/29 06:57:54;;;;;;;10.68;3.85;;;19.00;99.90;;;;;;5052641;28;20045;-79
2023/07/29 07:00:41;;;;;;;8.90;3.15;;;19.20;99.90;;;;;;5035392;28;20053;-76
2023/07/29 07:03:27;;;;;;;8.50;3.35;;;19.30;99.90;;;;;;5053252;28;20045;-77
2023/07/29 07:06:13;;;;;;;14.65;3.85;;;19.40;99.90;;;;;;5053106;28;20132;-78
2023/07/29 07:08:59;;;;;;;13.23;4.10;;;19.60;99.90;;;;;;5034799;28;20115;-79
2023/07/29 07:11:45;;;;;;;8.07;3.85;;;19.80;99.90;;;;;;5035507;28;20194;-77
2023/07/29 07:14:31;;;;;;;12.15;4.07;;;19.90;99.90;;;;;;5035693;28;20135;-78
2023/07/29 07:17:18;;;;;;;12.85;4.13;;;20.00;99.90;;;;;;5054038;28;20059;-77
2023/07/29 07:20:05;;;;;;;8.77;3.22;;;19.90;99.90;;;;;;5022940;28;20106;-77
2023/07/29 07:22:51;;;;;;;7.60;3.28;;;20.00;99.90;;;;;;5054494;28;20057;-77
2023/07/29 07:25:37;;;;;;;7.57;3.13;;;19.90;99.90;;;;;;5037220;28;20183;-77
2023/07/29 07:28:24;;;;;;;14.98;3.85;;;19.80;99.90;;;;;;5037840;28;20072;-77
2023/07/29 07:31:10;;;;;;;12.65;4.43;;;19.70;99.90;;;;;;5034658;28;20049;-77
2023/07/29 07:33:56;;;;;;;8.55;3.33;;;19.70;99.90;;;;;;5052376;28;20045;-79
2023/07/29 07:36:42;;;;;;;14.10;3.90;;;19.60;99.90;;;;;;5035150;28;20515;-77
2023/07/29 07:39:28;;;;;;;10.13;3.92;;;19.70;99.90;;;;;;5052020;28;20048;-77
2023/07/29 07:42:14;;;;;;;12.45;3.95;;;19.60;99.90;;;;;;5052469;28;20527;-77
2023/07/29 07:45:00;;;;;;;8.25;3.50;;;19.80;99.90;;;;;;5052305;28;20049;-77
2023/07/29 07:47:46;;;;;;;9.00;4.63;;;19.90;99.90;;;;;;5051988;28;20575;-77
2023/07/29 07:50:33;;;;;;;10.88;3.47;;;19.90;99.90;;;;;;5035285;28;20048;-77
2023/07/29 07:53:19;;;;;;;14.05;4.30;;;20.10;99.90;;;;;;5053337;28;20493;-77
2023/07/29 07:56:08;;;;;;;10.23;3.22;;;20.30;99.90;;;;;;5052781;28;20048;-78
2023/07/29 07:58:54;;;;;;;10.63;4.25;;;20.40;99.90;;;;;;5052027;28;20053;-77
2023/07/29 08:01:40;;;;;;;9.73;3.50;;;20.60;99.90;;;;;;5051587;28;20496;-77
2023/07/29 08:04:26;;;;;;;7.10;2.83;;;20.60;99.90;;;;;;5052019;28;20049;-77
2023/07/29 08:07:13;;;;;;;9.05;2.92;;;20.70;99.90;;;;;;5033710;28;20063;-77
2023/07/29 08:09:59;;;;;;;12.27;2.90;;;20.70;99.90;;;;;;5034116;28;20143;-77
2023/07/29 08:12:45;;;;;;;6.93;2.90;;;20.70;99.90;;;;;;5051744;28;20048;-77
2023/07/29 08:15:31;;;;;;;10.57;2.95;;;20.70;99.90;;;;;;5033668;28;20088;-77
2023/07/29 08:18:18;;;;;;;8.88;2.70;;;20.70;99.90;;;;;;5050804;28;20107;-78
2023/07/29 08:21:04;;;;;;;12.05;3.22;;;20.80;99.90;;;;;;5051927;28;20079;-76
2023/07/29 08:23:50;;;;;;;10.48;2.78;;;20.70;99.90;;;;;;5035728;28;20047;-77
2023/07/29 08:26:36;;;;;;;9.82;2.53;;;20.80;99.90;;;;;;5051989;28;20044;-77
2023/07/29 08:29:23;;;;;;;11.55;3.05;;;20.70;99.90;;;;;;5051626;28;20057;-78
2023/07/29 08:32:09;;;;;;;7.55;2.55;;;20.80;99.90;;;;;;5033829;28;20448;-77
2023/07/29 08:34:55;;;;;;;6.18;2.25;;;21.00;99.90;;;;;;5051034;28;20416;-77
2023/07/29 08:37:41;;;;;;;7.07;2.10;;;21.30;99.90;;;;;;5050299;28;20431;-77
2023/07/29 08:40:30;;;;;;;7.65;2.50;;;21.50;99.90;;;;;;5033252;28;20053;-77
2023/07/29 08:43:19;;;;;;;6.50;2.10;;;21.70;99.90;;;;;;5033507;28;20500;-77
2023/07/29 08:46:06;;;;;;;9.40;2.17;;;21.90;99.90;;;;;;5050891;28;20037;-77
2023/07/29 08:48:53;;;;;;;8.65;2.33;;;21.90;99.90;;;;;;5051134;28;20444;-77
2023/07/29 08:51:42;;;;;;;5.95;1.98;;;21.90;99.90;;;;;;5033730;28;20064;-77
2023/07/29 08:54:29;;;;;;;7.03;2.20;;;22.10;99.90;;;;;;5051035;28;20521;-77
2023/07/29 08:57:15;;;;;;;10.55;2.60;;;21.90;99.90;;;;;;5018542;28;20041;-77
2023/07/29 09:00:02;;;;;;;8.55;2.08;;;21.60;99.90;;;;;;5050669;28;20049;-75
2023/07/29 09:02:48;;;;;;;10.45;2.47;;;21.40;99.90;;;;;;5051016;28;20464;-77
2023/07/29 09:05:35;;;;;;;8.25;2.40;;;21.40;99.90;;;;;;5050959;28;20067;-77
2023/07/29 09:08:22;;;;;;;8.15;1.98;;;21.40;99.90;;;;;;5050923;28;20461;-77
2023/07/29 09:11:08;;;;;;;8.15;2.25;;;21.60;99.90;;;;;;5050285;28;20465;-77
2023/07/29 09:13:55;;;;;;;10.27;2.38;;;21.90;99.90;;;;;;5050920;28;20052;-77
2023/07/29 09:16:41;;;;;;;8.55;2.05;;;22.00;99.90;;;;;;5051356;28;20060;-76
2023/07/29 09:19:28;;;;;;;9.25;2.33;;;22.20;99.90;;;;;;5050736;28;20136;-77
2023/07/29 09:22:21;;;;;;;6.40;2.13;;;22.50;99.90;;;;;;5051644;28;20118;-78
2023/07/29 09:25:07;;;;;;;8.95;2.58;;;22.70;99.90;;;;;;5051361;28;20040;-78
2023/07/29 09:28:02;;;;;;;8.85;2.88;;;23.10;99.90;;;;;;5034286;28;20381;-77
2023/07/29 09:30:50;;;;;;;10.70;2.90;;;22.90;99.90;;;;;;5020938;28;20048;-79
2023/07/29 09:33:37;;;;;;;6.50;2.00;;;22.60;99.90;;;;;;5053421;28;20049;-78
2023/07/29 09:36:23;;;;;;;4.00;1.60;;;22.30;99.90;;;;;;5040519;28;20087;-78
2023/07/29 09:39:15;;;;;;;6.90;1.63;;;22.30;99.90;;;;;;5051896;28;20049;-79
2023/07/29 09:42:02;;;;;;;5.45;1.70;;;22.20;99.90;;;;;;5051105;28;20059;-77
2023/07/29 09:44:50;;;;;;;8.25;2.15;;;22.30;99.90;;;;;;5051187;28;20063;-77
2023/07/29 09:47:36;;;;;;;4.88;1.40;;;22.50;99.90;;;;;;5051940;28;20139;-77
2023/07/29 09:50:27;;;;;;;5.40;1.35;;;22.50;99.90;;;;;;5054623;28;20086;-77
2023/07/29 09:53:13;;;;;;;9.32;1.83;;;22.50;99.90;;;;;;5054035;28;20509;-77
2023/07/29 09:56:00;;;;;;;7.90;1.42;;;22.50;99.90;;;;;;5055239;28;20110;-77
2023/07/29 09:58:47;;;;;;;9.38;1.73;;;22.40;99.90;;;;;;5054044;28;20052;-77
2023/07/29 10:01:35;;;;;;;9.38;1.40;;;22.50;99.90;;;;;;5039320;28;20094;-76
2023/07/29 10:04:22;;;;;;;6.30;1.50;;;22.60;99.90;;;;;;5054273;28;20045;-78
2023/07/29 10:07:10;;;;;;;5.50;1.80;;;22.50;99.90;;;;;;5054275;28;20049;-77
2023/07/29 10:09:59;;;;;;;4.68;1.35;;;22.50;99.90;;;;;;5053579;28;20404;-77
2023/07/29 10:12:45;;;;;;;3.38;1.13;;;22.70;99.90;;;;;;5053491;28;20052;-76
2023/07/29 10:15:33;;;;;;;4.60;1.30;;;22.90;99.90;;;;;;5054059;28;20053;-77
2023/07/29 10:18:19;;;;;;;3.67;1.38;;;23.20;99.90;;;;;;5036702;28;20052;-78
2023/07/29 10:21:06;;;;;;;5.57;1.30;;;23.00;99.90;;;;;;5054268;28;20053;-78
2023/07/29 10:23:58;;;;;;;3.17;1.48;;;22.80;99.90;;;;;;5053877;28;20060;-78
2023/07/29 10:26:49;;;;;;;4.97;1.48;;;22.70;99.90;;;;;;5053836;28;20068;-78
2023/07/29 10:29:39;;;;;;;2.70;0.90;;;22.60;99.90;;;;;;5054127;28;20648;-77
2023/07/29 10:32:26;;;;;;;4.20;1.50;;;22.60;99.90;;;;;;5053624;28;20052;-76
2023/07/29 10:35:13;;;;;;;5.03;1.25;;;22.40;99.90;;;;;;5053666;28;20057;-77
2023/07/29 10:38:01;;;;;;;4.43;1.30;;;22.50;99.90;;;;;;5035826;28;20069;-77
2023/07/29 10:41:00;;;;;;;5.15;1.35;;;22.30;99.90;;;;;;5053820;28;20106;-77
2023/07/29 10:43:46;;;;;;;5.43;1.48;;;22.20;99.90;;;;;;5053262;28;20128;-77
2023/07/29 10:46:35;;;;;;;3.65;1.10;;;22.20;99.90;;;;;;5053461;28;20160;-78
2023/07/29 10:49:23;;;;;;;5.13;1.30;;;22.20;99.90;;;;;;5052893;28;20056;-77
2023/07/29 10:52:16;;;;;;;4.85;1.40;;;22.50;99.90;;;;;;5053397;28;20562;-77
2023/07/29 10:55:03;;;;;;;3.95;1.30;;;22.80;99.90;;;;;;5035069;28;20072;-78
2023/07/29 10:57:50;;;;;;;5.32;1.50;;;22.60;99.90;;;;;;5052695;28;20139;-77
2023/07/29 11:00:36;;;;;;;12.18;2.78;;;22.10;99.90;;;;;;5052487;28;20076;-78
2023/07/29 11:03:24;;;;;;;16.38;2.75;;;21.50;99.90;;;;;;5052901;28;20049;-78
2023/07/29 11:06:10;;;;;;;14.23;2.50;;;21.10;99.90;;;;;;5052816;28;20095;-77
2023/07/29 11:12:58;;;;;;;6.13;1.63;;;21.10;99.90;;;;;;5052759;28;20048;-77
2023/07/29 11:15:46;;;;;;;5.75;1.52;;;21.40;99.90;;;;;;5034951;28;20054;-77
2023/07/29 11:18:34;;;;;;;5.53;1.60;;;21.50;99.90;;;;;;5052627;28;20072;-75
2023/07/29 11:21:22;;;;;;;7.45;1.88;;;21.70;99.90;;;;;;5035470;28;20049;-77
2023/07/29 11:24:09;;;;;;;5.45;2.22;;;21.90;99.90;;;;;;5040680;28;20052;-76
2023/07/29 11:26:55;;;;;;;4.60;1.58;;;22.40;99.90;;;;;;5053600;28;20056;-78
2023/07/29 11:29:41;;;;;;;3.95;1.25;;;22.70;99.90;;;;;;5053254;28;20598;-78
2023/07/29 11:32:27;;;;;;;6.57;2.10;;;22.30;99.90;;;;;;5053490;28;20381;-75
2023/07/29 11:35:15;;;;;;;12.73;2.88;;;21.80;99.90;;;;;;5052620;28;20045;-77
2023/07/29 11:38:02;;;;;;;6.72;1.70;;;21.40;99.90;;;;;;5034145;28;20417;-78
2023/07/29 11:40:59;;;;;;;4.57;1.25;;;21.10;99.90;;;;;;5037974;28;20136;-77
2023/07/29 11:43:45;;;;;;;5.32;1.83;;;20.70;99.90;;;;;;5035056;28;20068;-77
2023/07/29 11:46:34;;;;;;;5.15;1.85;;;20.40;99.90;;;;;;5052114;28;20057;-76
2023/07/29 11:49:20;;;;;;;7.50;1.50;;;20.30;99.90;;;;;;5052216;28;20115;-76
2023/07/29 11:52:08;;;;;;;7.93;1.77;;;20.20;99.90;;;;;;5052843;28;20045;-77
2023/07/29 11:54:58;;;;;;;4.28;1.15;;;20.30;99.90;;;;;;5038445;28;20052;-77
2023/07/29 11:57:44;;;;;;;2.45;0.95;;;20.30;99.90;;;;;;5052504;28;20465;-76
2023/07/29 12:00:31;;;;;;;3.33;0.95;;;20.30;99.90;;;;;;5051870;28;20056;-77
2023/07/29 12:03:17;;;;;;;6.25;1.90;;;20.20;99.90;;;;;;5034017;28;20133;-78
2023/07/29 12:06:03;;;;;;;4.80;1.20;;;20.80;99.90;;;;;;5052978;28;20049;-77
2023/07/29 12:08:50;;;;;;;5.97;1.50;;;21.00;99.90;;;;;;5051559;28;20041;-78
2023/07/29 12:11:36;;;;;;;3.47;1.05;;;21.60;99.90;;;;;;5051475;28;20055;-78
2023/07/29 12:14:27;;;;;;;7.25;1.35;;;22.20;99.90;;;;;;5051724;28;20045;-77
2023/07/29 12:17:13;;;;;;;6.10;1.80;;;22.70;99.90;;;;;;5051504;28;20476;-78
2023/07/29 12:20:00;;;;;;;8.07;1.90;;;22.70;99.90;;;;;;5051410;28;20519;-78
2023/07/29 12:22:52;;;;;;;4.60;1.48;;;22.70;99.90;;;;;;5020684;28;20132;-77
2023/07/29 12:25:38;;;;;;;4.80;1.63;;;22.90;99.90;;;;;;5051474;28;20052;-79
2023/07/29 12:28:25;;;;;;;11.02;1.63;;;22.60;99.90;;;;;;5051159;28;20501;-76
2023/07/29 12:31:11;;;;;;;4.20;1.50;;;22.30;99.90;;;;;;5033566;28;20045;-76
2023/07/29 12:33:57;;;;;;;4.97;1.73;;;22.00;99.90;;;;;;5033366;28;20056;-78
2023/07/29 12:36:46;;;;;;;6.93;1.48;;;21.80;99.90;;;;;;5051157;28;20128;-78
2023/07/29 12:39:35;;;;;;;6.57;1.83;;;21.50;99.90;;;;;;5054594;28;20551;-79
2023/07/29 12:42:21;;;;;;;4.88;1.23;;;21.40;99.90;;;;;;5033876;28;20102;-77
2023/07/29 12:45:07;;;;;;;6.55;1.50;;;21.40;99.90;;;;;;5051245;28;20049;-77
2023/07/29 12:47:53;;;;;;;4.88;1.38;;;21.40;99.90;;;;;;5052138;28;20396;-78
2023/07/29 12:50:39;;;;;;;5.93;1.40;;;21.50;99.90;;;;;;5050913;28;20049;-77
2023/07/29 12:53:25;;;;;;;5.95;1.55;;;21.60;99.90;;;;;;5050504;28;20140;-78
2023/07/29 12:56:12;;;;;;;2.88;1.02;;;21.70;99.90;;;;;;5051354;28;20451;-77
2023/07/29 12:58:59;;;;;;;4.35;1.45;;;21.80;99.90;;;;;;5050722;28;20045;-78
2023/07/29 13:01:45;;;;;;;7.85;1.60;;;21.90;99.90;;;;;;5050815;28;20056;-76
2023/07/29 13:04:31;;;;;;;6.43;1.52;;;22.30;99.90;;;;;;5032529;28;20091;-75
2023/07/29 13:07:17;;;;;;;5.43;1.77;;;23.00;99.90;;;;;;5033654;28;20084;-78
2023/07/29 13:10:04;;;;;;;5.78;1.63;;;23.00;99.90;;;;;;5050578;28;20052;-77
2023/07/29 13:12:50;;;;;;;8.73;1.80;;;23.50;99.90;;;;;;5037235;28;20048;-79
2023/07/29 13:15:36;;;;;;;6.97;1.70;;;23.60;99.90;;;;;;5049906;28;20064;-77
2023/07/29 13:18:23;;;;;;;7.15;1.55;;;23.50;99.90;;;;;;5050415;28;20056;-76
2023/07/29 13:21:09;;;;;;;4.78;1.23;;;23.70;99.90;;;;;;5036371;28;20127;-77
2023/07/29 13:23:55;;;;;;;4.93;1.40;;;23.30;99.90;;;;;;5049952;28;20091;-78
2023/07/29 13:26:42;;;;;;;5.68;1.85;;;23.10;99.90;;;;;;5050902;28;20126;-79
2023/07/29 13:29:28;;;;;;;6.22;1.83;;;23.90;99.90;;;;;;5051080;28;20053;-77
2023/07/29 13:32:15;;;;;;;6.45;1.85;;;23.80;99.90;;;;;;5033291;28;20060;-77
2023/07/29 13:35:01;;;;;;;5.95;1.85;;;23.80;99.90;;;;;;5018503;28;20136;-78
2023/07/29 13:37:47;;;;;;;4.40;1.88;;;23.90;99.90;;;;;;5050271;28;20520;-77
2023/07/29 13:40:33;;;;;;;6.57;1.80;;;24.00;99.90;;;;;;5051419;28;20049;-77
2023/07/29 13:43:19;;;;;;;6.93;2.75;;;24.50;99.90;;;;;;5049843;28;20068;-77
2023/07/29 13:46:05;;;;;;;5.93;1.77;;;24.70;99.50;;;;;;5049563;28;20049;-78
2023/07/29 13:48:51;;;;;;;8.57;2.10;;;25.20;99.10;;;;;;5049967;28;20519;-77
2023/07/29 13:51:38;;;;;;;9.25;1.70;;;25.10;98.40;;;;;;5032391;28;20543;-77
2023/07/29 13:54:24;;;;;;;8.30;1.88;;;25.30;98.60;;;;;;5050398;28;20045;-77
2023/07/29 13:57:10;;;;;;;5.47;1.80;;;25.00;98.40;;;;;;5052179;28;20488;-78
2023/07/29 13:59:56;;;;;;;6.65;1.98;;;24.30;98.80;;;;;;5033289;28;20095;-78
2023/07/29 14:02:43;;;;;;;6.38;2.47;;;24.40;99.50;;;;;;5032956;28;20281;-78
2023/07/29 14:05:29;;;;;;;6.57;1.85;;;25.20;99.00;;;;;;5036157;28;20053;-78
2023/07/29 14:08:15;;;;;;;6.45;1.67;;;25.70;98.70;;;;;;5050327;28;20045;-78
2023/07/29 14:11:01;;;;;;;6.70;1.95;;;25.20;98.50;;;;;;5050338;28;20107;-79
2023/07/29 14:13:48;;;;;;;6.07;1.63;;;25.30;98.60;;;;;;5050331;28;20045;-78
2023/07/29 14:16:34;;;;;;;5.25;2.00;;;25.30;98.40;;;;;;5050030;28;20499;-78
2023/07/29 14:19:20;;;;;;;4.22;1.50;;;24.90;97.90;;;;;;5050599;28;20457;-78
2023/07/29 14:22:06;;;;;;;6.90;1.90;;;24.50;99.00;;;;;;5050051;28;20076;-78
2023/07/29 14:24:53;;;;;;;6.35;1.77;;;24.40;99.90;;;;;;5036270;28;20049;-78
2023/07/29 14:27:39;;;;;;;4.90;1.70;;;25.30;99.90;;;;;;5050375;28;20057;-77